sensor_id;sensor_type;location;lat;lon;timestamp;P1;durP1;ratioP1;P2;durP2;ratioP2
40449;SDS011;41787;53.570;10.032;2023-05-03T00:01:33;6.13;;;1.70;;
40449;SDS011;41787;53.570;10.032;2023-05-03T00:03:59;8.05;;;2.03;;
40449;SDS011;41787;53.570;10.032;2023-05-03T00:06:25;4.68;;;1.45;;
40449;SDS011;41787;53.570;10.032;2023-05-03T00:08:51;5.10;;;1.23;;
40449;SDS011;41787;53.570;10.032;2023-05-03T00:11:17;3.20;;;1.08;;
40449;SDS011;41787;53.570;10.032;2023-05-03T00:13:43;3.60;;;1.20;;
40449;SDS011;41787;53.570;10.032;2023-05-03T00:16:09;7.15;;;1.55;;
40449;SDS011;41787;53.570;10.032;2023-05-03T00:18:35;7.95;;;1.25;;
40449;SDS011;41787;53.570;10.032;2023-05-03T00:21:01;8.98;;;1.40;;
40449;SDS011;41787;53.570;10.032;2023-05-03T00:23:27;5.93;;;1.27;;
40449;SDS011;41787;53.570;10.032;2023-05-03T00:25:57;4.15;;;1.33;;
40449;SDS011;41787;53.570;10.032;2023-05-03T00:28:23;6.25;;;1.10;;
40449;SDS011;41787;53.570;10.032;2023-05-03T00:30:49;4.80;;;1.23;;
40449;SDS011;41787;53.570;10.032;2023-05-03T00:33:16;5.13;;;1.73;;
40449;SDS011;41787;53.570;10.032;2023-05-03T00:35:42;2.50;;;1.23;;
40449;SDS011;41787;53.570;10.032;2023-05-03T00:38:08;8.85;;;1.10;;
40449;SDS011;41787;53.570;10.032;2023-05-03T00:40:35;4.47;;;1.52;;
40449;SDS011;41787;53.570;10.032;2023-05-03T00:43:03;5.05;;;1.45;;
40449;SDS011;41787;53.570;10.032;2023-05-03T00:45:30;5.75;;;1.45;;
40449;SDS011;41787;53.570;10.032;2023-05-03T00:47:58;3.85;;;1.40;;
40449;SDS011;41787;53.570;10.032;2023-05-03T00:50:24;3.30;;;1.20;;
40449;SDS011;41787;53.570;10.032;2023-05-03T00:52:50;3.60;;;1.30;;
40449;SDS011;41787;53.570;10.032;2023-05-03T00:55:16;6.28;;;1.30;;
40449;SDS011;41787;53.570;10.032;2023-05-03T00:57:43;3.65;;;1.98;;
40449;SDS011;41787;53.570;10.032;2023-05-03T01:00:09;7.15;;;1.33;;
40449;SDS011;41787;53.570;10.032;2023-05-03T01:02:37;4.82;;;1.60;;
40449;SDS011;41787;53.570;10.032;2023-05-03T01:05:03;7.03;;;1.63;;
40449;SDS011;41787;53.570;10.032;2023-05-03T01:07:39;3.20;;;1.40;;
40449;SDS011;41787;53.570;10.032;2023-05-03T01:12:52;1.88;;;1.20;;
40449;SDS011;41787;53.570;10.032;2023-05-03T01:15:30;4.35;;;1.42;;
40449;SDS011;41787;53.570;10.032;2023-05-03T01:18:02;3.53;;;1.20;;
40449;SDS011;41787;53.570;10.032;2023-05-03T01:25:23;3.92;;;1.27;;
40449;SDS011;41787;53.570;10.032;2023-05-03T01:27:50;1.88;;;1.20;;
40449;SDS011;41787;53.570;10.032;2023-05-03T01:30:16;2.53;;;1.15;;
40449;SDS011;41787;53.570;10.032;2023-05-03T01:32:45;6.88;;;2.65;;
40449;SDS011;41787;53.570;10.032;2023-05-03T01:35:22;4.05;;;1.33;;
40449;SDS011;41787;53.570;10.032;2023-05-03T01:37:51;4.22;;;1.30;;
40449;SDS011;41787;53.570;10.032;2023-05-03T01:40:18;3.65;;;1.30;;
40449;SDS011;41787;53.570;10.032;2023-05-03T01:42:45;8.00;;;1.73;;
40449;SDS011;41787;53.570;10.032;2023-05-03T01:45:12;3.35;;;1.58;;
40449;SDS011;41787;53.570;10.032;2023-05-03T01:47:38;6.32;;;1.45;;
40449;SDS011;41787;53.570;10.032;2023-05-03T01:50:04;3.15;;;1.33;;
40449;SDS011;41787;53.570;10.032;2023-05-03T01:52:30;3.63;;;1.30;;
40449;SDS011;41787;53.570;10.032;2023-05-03T01:54:56;3.35;;;1.35;;
40449;SDS011;41787;53.570;10.032;2023-05-03T01:57:23;4.93;;;1.45;;
40449;SDS011;41787;53.570;10.032;2023-05-03T01:59:49;6.05;;;1.25;;
40449;SDS011;41787;53.570;10.032;2023-05-03T02:02:15;6.45;;;1.40;;
40449;SDS011;41787;53.570;10.032;2023-05-03T02:04:41;6.00;;;1.40;;
40449;SDS011;41787;53.570;10.032;2023-05-03T02:07:07;8.48;;;2.63;;
40449;SDS011;41787;53.570;10.032;2023-05-03T02:09:33;4.82;;;1.52;;
40449;SDS011;41787;53.570;10.032;2023-05-03T02:11:59;7.38;;;2.08;;
40449;SDS011;41787;53.570;10.032;2023-05-03T02:14:25;5.18;;;1.08;;
40449;SDS011;41787;53.570;10.032;2023-05-03T02:16:51;2.15;;;1.20;;
40449;SDS011;41787;53.570;10.032;2023-05-03T02:19:19;3.72;;;1.38;;
40449;SDS011;41787;53.570;10.032;2023-05-03T02:21:45;7.90;;;1.30;;
40449;SDS011;41787;53.570;10.032;2023-05-03T02:24:11;5.82;;;2.15;;
40449;SDS011;41787;53.570;10.032;2023-05-03T02:26:37;3.47;;;1.10;;
40449;SDS011;41787;53.570;10.032;2023-05-03T02:29:03;7.88;;;1.40;;
40449;SDS011;41787;53.570;10.032;2023-05-03T02:31:29;7.70;;;1.58;;
40449;SDS011;41787;53.570;10.032;2023-05-03T02:33:55;7.18;;;1.30;;
40449;SDS011;41787;53.570;10.032;2023-05-03T02:36:21;2.10;;;1.30;;
40449;SDS011;41787;53.570;10.032;2023-05-03T02:38:47;7.45;;;1.52;;
40449;SDS011;41787;53.570;10.032;2023-05-03T02:41:13;6.38;;;1.50;;
40449;SDS011;41787;53.570;10.032;2023-05-03T02:43:39;4.72;;;1.50;;
40449;SDS011;41787;53.570;10.032;2023-05-03T02:46:04;2.67;;;1.13;;
40449;SDS011;41787;53.570;10.032;2023-05-03T02:48:30;10.65;;;1.55;;
40449;SDS011;41787;53.570;10.032;2023-05-03T02:50:56;4.20;;;1.60;;
40449;SDS011;41787;53.570;10.032;2023-05-03T02:53:22;4.50;;;1.83;;
40449;SDS011;41787;53.570;10.032;2023-05-03T02:55:48;8.98;;;2.08;;
40449;SDS011;41787;53.570;10.032;2023-05-03T02:58:15;3.60;;;1.80;;
40449;SDS011;41787;53.570;10.032;2023-05-03T03:00:41;6.07;;;1.88;;
40449;SDS011;41787;53.570;10.032;2023-05-03T03:03:07;5.93;;;2.20;;
40449;SDS011;41787;53.570;10.032;2023-05-03T03:05:33;5.35;;;1.98;;
40449;SDS011;41787;53.570;10.032;2023-05-03T03:07:59;5.22;;;2.58;;
40449;SDS011;41787;53.570;10.032;2023-05-03T03:10:25;8.40;;;2.75;;
40449;SDS011;41787;53.570;10.032;2023-05-03T03:12:51;7.88;;;2.22;;
40449;SDS011;41787;53.570;10.032;2023-05-03T03:15:17;5.05;;;2.50;;
40449;SDS011;41787;53.570;10.032;2023-05-03T03:17:42;9.82;;;3.10;;
40449;SDS011;41787;53.570;10.032;2023-05-03T03:20:08;3.83;;;1.90;;
40449;SDS011;41787;53.570;10.032;2023-05-03T03:22:38;5.78;;;3.40;;
40449;SDS011;41787;53.570;10.032;2023-05-03T03:25:04;5.35;;;2.47;;
40449;SDS011;41787;53.570;10.032;2023-05-03T03:27:31;7.47;;;2.35;;
40449;SDS011;41787;53.570;10.032;2023-05-03T03:29:57;6.43;;;2.45;;
40449;SDS011;41787;53.570;10.032;2023-05-03T03:32:23;5.38;;;2.45;;
40449;SDS011;41787;53.570;10.032;2023-05-03T03:34:50;5.40;;;2.60;;
40449;SDS011;41787;53.570;10.032;2023-05-03T03:37:16;7.30;;;2.70;;
40449;SDS011;41787;53.570;10.032;2023-05-03T03:39:42;11.23;;;3.95;;
40449;SDS011;41787;53.570;10.032;2023-05-03T03:42:09;11.00;;;3.08;;
40449;SDS011;41787;53.570;10.032;2023-05-03T03:44:37;6.73;;;2.37;;
40449;SDS011;41787;53.570;10.032;2023-05-03T03:47:02;8.10;;;2.40;;
40449;SDS011;41787;53.570;10.032;2023-05-03T03:49:28;5.35;;;2.92;;
40449;SDS011;41787;53.570;10.032;2023-05-03T03:51:54;9.10;;;3.95;;
40449;SDS011;41787;53.570;10.032;2023-05-03T03:54:20;5.68;;;3.20;;
40449;SDS011;41787;53.570;10.032;2023-05-03T03:56:46;2.55;;;1.55;;
40449;SDS011;41787;53.570;10.032;2023-05-03T03:59:12;12.52;;;2.75;;
40449;SDS011;41787;53.570;10.032;2023-05-03T04:01:38;13.55;;;2.90;;
40449;SDS011;41787;53.570;10.032;2023-05-03T04:04:04;6.63;;;2.10;;
40449;SDS011;41787;53.570;10.032;2023-05-03T04:06:30;6.57;;;2.58;;
40449;SDS011;41787;53.570;10.032;2023-05-03T04:08:57;8.57;;;2.50;;
40449;SDS011;41787;53.570;10.032;2023-05-03T04:11:23;11.88;;;2.78;;
40449;SDS011;41787;53.570;10.032;2023-05-03T04:13:49;8.55;;;2.65;;
40449;SDS011;41787;53.570;10.032;2023-05-03T04:16:15;8.80;;;2.45;;
40449;SDS011;41787;53.570;10.032;2023-05-03T04:18:41;6.63;;;2.78;;
40449;SDS011;41787;53.570;10.032;2023-05-03T04:21:07;5.85;;;2.22;;
40449;SDS011;41787;53.570;10.032;2023-05-03T04:23:33;4.22;;;2.22;;
40449;SDS011;41787;53.570;10.032;2023-05-03T04:25:59;6.28;;;2.40;;
40449;SDS011;41787;53.570;10.032;2023-05-03T04:28:25;7.45;;;2.45;;
40449;SDS011;41787;53.570;10.032;2023-05-03T04:30:52;4.05;;;2.33;;
40449;SDS011;41787;53.570;10.032;2023-05-03T04:33:20;7.20;;;2.80;;
40449;SDS011;41787;53.570;10.032;2023-05-03T04:35:50;10.27;;;3.30;;
40449;SDS011;41787;53.570;10.032;2023-05-03T04:38:16;7.70;;;2.25;;
40449;SDS011;41787;53.570;10.032;2023-05-03T04:40:43;5.15;;;2.53;;
40449;SDS011;41787;53.570;10.032;2023-05-03T04:43:10;6.75;;;2.45;;
40449;SDS011;41787;53.570;10.032;2023-05-03T04:45:36;6.35;;;2.50;;
40449;SDS011;41787;53.570;10.032;2023-05-03T04:48:03;10.25;;;2.75;;
40449;SDS011;41787;53.570;10.032;2023-05-03T04:50:29;6.90;;;2.38;;
40449;SDS011;41787;53.570;10.032;2023-05-03T04:52:55;6.60;;;2.00;;
40449;SDS011;41787;53.570;10.032;2023-05-03T04:55:21;6.47;;;1.85;;
40449;SDS011;41787;53.570;10.032;2023-05-03T04:57:47;11.75;;;2.90;;
40449;SDS011;41787;53.570;10.032;2023-05-03T05:00:13;4.38;;;1.98;;
40449;SDS011;41787;53.570;10.032;2023-05-03T05:02:40;8.73;;;1.83;;
40449;SDS011;41787;53.570;10.032;2023-05-03T05:05:06;6.90;;;2.05;;
40449;SDS011;41787;53.570;10.032;2023-05-03T05:07:33;7.93;;;2.25;;
40449;SDS011;41787;53.570;10.032;2023-05-03T05:09:59;4.60;;;2.30;;
40449;SDS011;41787;53.570;10.032;2023-05-03T05:12:25;4.38;;;2.00;;
40449;SDS011;41787;53.570;10.032;2023-05-03T05:14:52;8.35;;;1.92;;
40449;SDS011;41787;53.570;10.032;2023-05-03T05:17:18;8.57;;;2.00;;
40449;SDS011;41787;53.570;10.032;2023-05-03T05:19:43;3.08;;;1.63;;
40449;SDS011;41787;53.570;10.032;2023-05-03T05:22:09;5.43;;;1.63;;
40449;SDS011;41787;53.570;10.032;2023-05-03T05:24:35;6.25;;;3.22;;
40449;SDS011;41787;53.570;10.032;2023-05-03T05:27:01;8.48;;;2.10;;
40449;SDS011;41787;53.570;10.032;2023-05-03T05:29:28;12.68;;;2.60;;
40449;SDS011;41787;53.570;10.032;2023-05-03T05:31:57;3.72;;;1.95;;
40449;SDS011;41787;53.570;10.032;2023-05-03T05:34:25;7.10;;;1.92;;
40449;SDS011;41787;53.570;10.032;2023-05-03T05:36:51;10.02;;;2.20;;
40449;SDS011;41787;53.570;10.032;2023-05-03T05:39:17;8.68;;;1.90;;
40449;SDS011;41787;53.570;10.032;2023-05-03T05:41:43;1.65;;;1.08;;
40449;SDS011;41787;53.570;10.032;2023-05-03T05:44:09;3.42;;;1.45;;
40449;SDS011;41787;53.570;10.032;2023-05-03T05:46:37;6.80;;;1.92;;
40449;SDS011;41787;53.570;10.032;2023-05-03T05:49:03;5.57;;;2.15;;
40449;SDS011;41787;53.570;10.032;2023-05-03T05:51:29;8.57;;;1.73;;
40449;SDS011;41787;53.570;10.032;2023-05-03T05:53:55;9.00;;;1.67;;
40449;SDS011;41787;53.570;10.032;2023-05-03T05:56:22;6.28;;;1.88;;
40449;SDS011;41787;53.570;10.032;2023-05-03T05:58:48;5.97;;;2.00;;
40449;SDS011;41787;53.570;10.032;2023-05-03T06:01:14;4.97;;;1.83;;
40449;SDS011;41787;53.570;10.032;2023-05-03T06:03:40;6.90;;;2.33;;
40449;SDS011;41787;53.570;10.032;2023-05-03T06:06:09;3.20;;;1.50;;
40449;SDS011;41787;53.570;10.032;2023-05-03T06:08:35;0.63;;;0.63;;
40449;SDS011;41787;53.570;10.032;2023-05-03T06:11:01;8.27;;;1.38;;
40449;SDS011;41787;53.570;10.032;2023-05-03T06:13:27;3.63;;;2.03;;
40449;SDS011;41787;53.570;10.032;2023-05-03T06:15:53;3.20;;;1.50;;
40449;SDS011;41787;53.570;10.032;2023-05-03T06:18:19;7.47;;;2.03;;
40449;SDS011;41787;53.570;10.032;2023-05-03T06:20:48;5.95;;;1.58;;
40449;SDS011;41787;53.570;10.032;2023-05-03T06:23:14;4.25;;;1.48;;
40449;SDS011;41787;53.570;10.032;2023-05-03T06:25:41;7.68;;;1.30;;
40449;SDS011;41787;53.570;10.032;2023-05-03T06:28:10;8.77;;;1.50;;
40449;SDS011;41787;53.570;10.032;2023-05-03T06:30:36;8.98;;;1.52;;
40449;SDS011;41787;53.570;10.032;2023-05-03T06:33:02;5.60;;;1.13;;
40449;SDS011;41787;53.570;10.032;2023-05-03T06:35:28;6.30;;;1.40;;
40449;SDS011;41787;53.570;10.032;2023-05-03T06:37:54;2.63;;;1.23;;
40449;SDS011;41787;53.570;10.032;2023-05-03T06:40:20;1.95;;;0.63;;
40449;SDS011;41787;53.570;10.032;2023-05-03T06:42:48;6.38;;;2.42;;
40449;SDS011;41787;53.570;10.032;2023-05-03T06:45:14;4.47;;;0.90;;
40449;SDS011;41787;53.570;10.032;2023-05-03T06:47:42;2.15;;;0.88;;
40449;SDS011;41787;53.570;10.032;2023-05-03T06:50:10;4.35;;;1.38;;
40449;SDS011;41787;53.570;10.032;2023-05-03T06:52:38;2.35;;;0.70;;
40449;SDS011;41787;53.570;10.032;2023-05-03T06:55:07;1.80;;;1.00;;
40449;SDS011;41787;53.570;10.032;2023-05-03T06:57:33;0.45;;;0.40;;
40449;SDS011;41787;53.570;10.032;2023-05-03T06:59:59;4.93;;;0.90;;
40449;SDS011;41787;53.570;10.032;2023-05-03T07:02:25;0.52;;;0.40;;
40449;SDS011;41787;53.570;10.032;2023-05-03T07:04:51;2.78;;;0.60;;
40449;SDS011;41787;53.570;10.032;2023-05-03T07:07:17;1.17;;;0.60;;
40449;SDS011;41787;53.570;10.032;2023-05-03T07:09:43;1.83;;;0.63;;
40449;SDS011;41787;53.570;10.032;2023-05-03T07:12:09;2.22;;;0.80;;
40449;SDS011;41787;53.570;10.032;2023-05-03T07:14:35;1.38;;;0.52;;
40449;SDS011;41787;53.570;10.032;2023-05-03T07:17:02;4.90;;;0.63;;
40449;SDS011;41787;53.570;10.032;2023-05-03T07:19:28;0.95;;;0.50;;
40449;SDS011;41787;53.570;10.032;2023-05-03T07:21:54;1.83;;;0.55;;
40449;SDS011;41787;53.570;10.032;2023-05-03T07:24:20;3.33;;;0.50;;
40449;SDS011;41787;53.570;10.032;2023-05-03T07:26:48;2.25;;;0.80;;
40449;SDS011;41787;53.570;10.032;2023-05-03T07:29:14;1.40;;;0.80;;
40449;SDS011;41787;53.570;10.032;2023-05-03T07:31:40;4.68;;;0.93;;
40449;SDS011;41787;53.570;10.032;2023-05-03T07:34:08;2.28;;;0.80;;
40449;SDS011;41787;53.570;10.032;2023-05-03T07:36:34;1.75;;;0.80;;
40449;SDS011;41787;53.570;10.032;2023-05-03T07:39:00;1.02;;;0.55;;
40449;SDS011;41787;53.570;10.032;2023-05-03T07:41:26;0.65;;;0.60;;
40449;SDS011;41787;53.570;10.032;2023-05-03T07:43:52;2.88;;;0.75;;
40449;SDS011;41787;53.570;10.032;2023-05-03T07:46:18;0.43;;;0.40;;
40449;SDS011;41787;53.570;10.032;2023-05-03T07:48:45;2.83;;;0.80;;
40449;SDS011;41787;53.570;10.032;2023-05-03T07:51:11;9.57;;;1.08;;
40449;SDS011;41787;53.570;10.032;2023-05-03T07:53:39;3.10;;;1.20;;
40449;SDS011;41787;53.570;10.032;2023-05-03T07:56:06;2.58;;;0.60;;
40449;SDS011;41787;53.570;10.032;2023-05-03T07:58:32;1.55;;;1.02;;
40449;SDS011;41787;53.570;10.032;2023-05-03T08:01:01;1.65;;;0.60;;
40449;SDS011;41787;53.570;10.032;2023-05-03T08:03:27;4.53;;;0.80;;
40449;SDS011;41787;53.570;10.032;2023-05-03T08:05:53;2.45;;;0.77;;
40449;SDS011;41787;53.570;10.032;2023-05-03T08:08:19;2.80;;;0.50;;
40449;SDS011;41787;53.570;10.032;2023-05-03T08:10:45;3.88;;;1.17;;
40449;SDS011;41787;53.570;10.032;2023-05-03T08:13:11;2.85;;;0.68;;
40449;SDS011;41787;53.570;10.032;2023-05-03T08:15:40;3.58;;;0.60;;
40449;SDS011;41787;53.570;10.032;2023-05-03T08:18:06;3.47;;;0.98;;
40449;SDS011;41787;53.570;10.032;2023-05-03T08:20:37;5.72;;;1.05;;
40449;SDS011;41787;53.570;10.032;2023-05-03T08:23:03;2.28;;;0.77;;
40449;SDS011;41787;53.570;10.032;2023-05-03T08:25:29;4.80;;;0.70;;
40449;SDS011;41787;53.570;10.032;2023-05-03T08:27:55;2.15;;;0.88;;
40449;SDS011;41787;53.570;10.032;2023-05-03T08:30:21;7.00;;;0.82;;
40449;SDS011;41787;53.570;10.032;2023-05-03T08:32:47;3.47;;;0.70;;
40449;SDS011;41787;53.570;10.032;2023-05-03T08:35:13;4.65;;;0.63;;
40449;SDS011;41787;53.570;10.032;2023-05-03T08:37:40;1.58;;;0.60;;
40449;SDS011;41787;53.570;10.032;2023-05-03T08:40:07;3.08;;;0.68;;
40449;SDS011;41787;53.570;10.032;2023-05-03T08:42:41;4.50;;;0.95;;
40449;SDS011;41787;53.570;10.032;2023-05-03T08:45:11;1.33;;;0.50;;
40449;SDS011;41787;53.570;10.032;2023-05-03T08:47:38;1.02;;;0.40;;
40449;SDS011;41787;53.570;10.032;2023-05-03T08:50:06;2.78;;;0.63;;
40449;SDS011;41787;53.570;10.032;2023-05-03T08:52:33;2.67;;;0.73;;
40449;SDS011;41787;53.570;10.032;2023-05-03T08:54:59;2.58;;;0.60;;
40449;SDS011;41787;53.570;10.032;2023-05-03T08:57:25;1.40;;;0.50;;
40449;SDS011;41787;53.570;10.032;2023-05-03T08:59:52;3.50;;;0.88;;
40449;SDS011;41787;53.570;10.032;2023-05-03T09:02:21;2.95;;;0.70;;
40449;SDS011;41787;53.570;10.032;2023-05-03T09:04:47;5.38;;;0.88;;
40449;SDS011;41787;53.570;10.032;2023-05-03T09:07:13;2.10;;;0.75;;
40449;SDS011;41787;53.570;10.032;2023-05-03T09:09:43;1.30;;;0.50;;
40449;SDS011;41787;53.570;10.032;2023-05-03T09:12:10;2.72;;;0.70;;
40449;SDS011;41787;53.570;10.032;2023-05-03T09:14:42;5.47;;;1.48;;
40449;SDS011;41787;53.570;10.032;2023-05-03T09:17:13;5.70;;;0.90;;
40449;SDS011;41787;53.570;10.032;2023-05-03T09:19:48;0.88;;;0.47;;
40449;SDS011;41787;53.570;10.032;2023-05-03T09:22:14;4.32;;;1.02;;
40449;SDS011;41787;53.570;10.032;2023-05-03T09:24:47;2.75;;;0.90;;
40449;SDS011;41787;53.570;10.032;2023-05-03T09:27:16;1.88;;;1.05;;
40449;SDS011;41787;53.570;10.032;2023-05-03T09:29:45;5.10;;;0.77;;
40449;SDS011;41787;53.570;10.032;2023-05-03T09:32:11;4.88;;;1.15;;
40449;SDS011;41787;53.570;10.032;2023-05-03T09:34:37;1.15;;;0.40;;
40449;SDS011;41787;53.570;10.032;2023-05-03T09:37:03;2.17;;;0.60;;
40449;SDS011;41787;53.570;10.032;2023-05-03T09:39:29;1.45;;;0.50;;
40449;SDS011;41787;53.570;10.032;2023-05-03T09:41:55;4.60;;;1.00;;
40449;SDS011;41787;53.570;10.032;2023-05-03T09:44:42;3.47;;;0.75;;
40449;SDS011;41787;53.570;10.032;2023-05-03T09:47:11;3.50;;;0.60;;
40449;SDS011;41787;53.570;10.032;2023-05-03T09:49:37;2.70;;;0.70;;
40449;SDS011;41787;53.570;10.032;2023-05-03T09:52:03;2.50;;;0.68;;
40449;SDS011;41787;53.570;10.032;2023-05-03T09:54:31;1.73;;;0.45;;
40449;SDS011;41787;53.570;10.032;2023-05-03T09:56:57;1.52;;;0.80;;
40449;SDS011;41787;53.570;10.032;2023-05-03T09:59:24;2.72;;;0.65;;
40449;SDS011;41787;53.570;10.032;2023-05-03T10:01:52;6.35;;;0.90;;
40449;SDS011;41787;53.570;10.032;2023-05-03T10:04:21;2.75;;;0.68;;
40449;SDS011;41787;53.570;10.032;2023-05-03T10:06:48;1.88;;;0.88;;
40449;SDS011;41787;53.570;10.032;2023-05-03T10:09:23;4.47;;;0.75;;
40449;SDS011;41787;53.570;10.032;2023-05-03T10:11:51;3.53;;;0.63;;
40449;SDS011;41787;53.570;10.032;2023-05-03T10:14:18;1.42;;;0.70;;
40449;SDS011;41787;53.570;10.032;2023-05-03T10:16:46;5.35;;;0.77;;
40449;SDS011;41787;53.570;10.032;2023-05-03T10:19:14;1.83;;;0.63;;
40449;SDS011;41787;53.570;10.032;2023-05-03T10:24:28;1.30;;;0.30;;
40449;SDS011;41787;53.570;10.032;2023-05-03T10:26:54;2.70;;;0.70;;
40449;SDS011;41787;53.570;10.032;2023-05-03T10:32:28;1.45;;;0.77;;
40449;SDS011;41787;53.570;10.032;2023-05-03T10:34:55;3.63;;;0.80;;
40449;SDS011;41787;53.570;10.032;2023-05-03T10:37:24;2.47;;;1.05;;
40449;SDS011;41787;53.570;10.032;2023-05-03T10:39:51;5.90;;;0.88;;
40449;SDS011;41787;53.570;10.032;2023-05-03T10:42:17;2.28;;;0.93;;
40449;SDS011;41787;53.570;10.032;2023-05-03T10:44:50;3.75;;;0.90;;
40449;SDS011;41787;53.570;10.032;2023-05-03T10:47:17;1.70;;;0.50;;
40449;SDS011;41787;53.570;10.032;2023-05-03T10:49:44;1.60;;;0.65;;
40449;SDS011;41787;53.570;10.032;2023-05-03T10:54:55;2.63;;;0.70;;
40449;SDS011;41787;53.570;10.032;2023-05-03T10:57:21;2.20;;;0.90;;
40449;SDS011;41787;53.570;10.032;2023-05-03T10:59:51;2.88;;;0.98;;
40449;SDS011;41787;53.570;10.032;2023-05-03T11:02:17;2.10;;;0.93;;
40449;SDS011;41787;53.570;10.032;2023-05-03T11:04:48;4.55;;;1.38;;
40449;SDS011;41787;53.570;10.032;2023-05-03T11:07:19;3.03;;;0.77;;
40449;SDS011;41787;53.570;10.032;2023-05-03T11:09:46;2.45;;;0.77;;
40449;SDS011;41787;53.570;10.032;2023-05-03T11:12:12;3.70;;;0.68;;
40449;SDS011;41787;53.570;10.032;2023-05-03T11:14:41;1.30;;;0.70;;
40449;SDS011;41787;53.570;10.032;2023-05-03T11:17:16;7.18;;;0.70;;
40449;SDS011;41787;53.570;10.032;2023-05-03T11:19:42;9.25;;;0.98;;
40449;SDS011;41787;53.570;10.032;2023-05-03T11:22:08;3.67;;;0.80;;
40449;SDS011;41787;53.570;10.032;2023-05-03T11:24:36;4.32;;;0.95;;
40449;SDS011;41787;53.570;10.032;2023-05-03T11:27:02;3.55;;;0.75;;
40449;SDS011;41787;53.570;10.032;2023-05-03T11:29:28;1.77;;;0.85;;
40449;SDS011;41787;53.570;10.032;2023-05-03T11:31:56;2.47;;;0.90;;
40449;SDS011;41787;53.570;10.032;2023-05-03T11:34:22;3.28;;;0.90;;
40449;SDS011;41787;53.570;10.032;2023-05-03T11:36:49;1.63;;;0.65;;
40449;SDS011;41787;53.570;10.032;2023-05-03T11:39:15;3.92;;;1.00;;
40449;SDS011;41787;53.570;10.032;2023-05-03T11:41:42;3.00;;;1.20;;
40449;SDS011;41787;53.570;10.032;2023-05-03T11:44:08;2.90;;;1.17;;
40449;SDS011;41787;53.570;10.032;2023-05-03T11:46:35;3.15;;;0.70;;
40449;SDS011;41787;53.570;10.032;2023-05-03T11:49:02;2.47;;;0.75;;
40449;SDS011;41787;53.570;10.032;2023-05-03T11:51:28;1.52;;;0.80;;
40449;SDS011;41787;53.570;10.032;2023-05-03T11:53:55;2.33;;;0.60;;
40449;SDS011;41787;53.570;10.032;2023-05-03T11:56:21;3.75;;;0.88;;
40449;SDS011;41787;53.570;10.032;2023-05-03T11:58:55;3.58;;;0.98;;
40449;SDS011;41787;53.570;10.032;2023-05-03T12:01:23;4.03;;;0.90;;
40449;SDS011;41787;53.570;10.032;2023-05-03T12:03:52;5.55;;;1.00;;
40449;SDS011;41787;53.570;10.032;2023-05-03T12:06:19;2.67;;;1.13;;
40449;SDS011;41787;53.570;10.032;2023-05-03T12:08:45;1.70;;;0.80;;
40449;SDS011;41787;53.570;10.032;2023-05-03T12:11:11;3.13;;;1.15;;
40449;SDS011;41787;53.570;10.032;2023-05-03T12:13:37;2.83;;;0.82;;
40449;SDS011;41787;53.570;10.032;2023-05-03T12:16:04;0.38;;;0.38;;
40449;SDS011;41787;53.570;10.032;2023-05-03T12:18:46;5.43;;;1.65;;
40449;SDS011;41787;53.570;10.032;2023-05-03T12:21:14;1.52;;;0.90;;
40449;SDS011;41787;53.570;10.032;2023-05-03T12:23:40;4.03;;;1.00;;
40449;SDS011;41787;53.570;10.032;2023-05-03T12:26:06;2.22;;;0.80;;
40449;SDS011;41787;53.570;10.032;2023-05-03T12:28:32;2.97;;;0.70;;
40449;SDS011;41787;53.570;10.032;2023-05-03T12:30:58;1.45;;;0.57;;
40449;SDS011;41787;53.570;10.032;2023-05-03T12:33:24;2.25;;;0.93;;
40449;SDS011;41787;53.570;10.032;2023-05-03T12:35:52;4.28;;;0.98;;
40449;SDS011;41787;53.570;10.032;2023-05-03T12:38:17;4.53;;;1.33;;
40449;SDS011;41787;53.570;10.032;2023-05-03T12:40:44;1.10;;;1.00;;
40449;SDS011;41787;53.570;10.032;2023-05-03T12:43:11;2.08;;;0.80;;
40449;SDS011;41787;53.570;10.032;2023-05-03T12:45:37;5.00;;;0.90;;
40449;SDS011;41787;53.570;10.032;2023-05-03T12:48:03;3.83;;;1.00;;
40449;SDS011;41787;53.570;10.032;2023-05-03T12:50:29;1.75;;;0.88;;
40449;SDS011;41787;53.570;10.032;2023-05-03T12:52:55;4.18;;;1.40;;
40449;SDS011;41787;53.570;10.032;2023-05-03T12:55:22;2.58;;;0.93;;
40449;SDS011;41787;53.570;10.032;2023-05-03T12:57:47;5.15;;;1.00;;
40449;SDS011;41787;53.570;10.032;2023-05-03T13:00:14;4.65;;;1.15;;
40449;SDS011;41787;53.570;10.032;2023-05-03T13:02:41;2.45;;;0.93;;
40449;SDS011;41787;53.570;10.032;2023-05-03T13:05:07;4.65;;;1.38;;
40449;SDS011;41787;53.570;10.032;2023-05-03T13:07:33;3.22;;;0.98;;
40449;SDS011;41787;53.570;10.032;2023-05-03T13:10:00;2.58;;;0.90;;
40449;SDS011;41787;53.570;10.032;2023-05-03T13:12:26;2.72;;;0.80;;
40449;SDS011;41787;53.570;10.032;2023-05-03T13:14:52;3.42;;;1.00;;
40449;SDS011;41787;53.570;10.032;2023-05-03T13:17:19;4.25;;;0.95;;
40449;SDS011;41787;53.570;10.032;2023-05-03T13:19:46;0.88;;;0.50;;
40449;SDS011;41787;53.570;10.032;2023-05-03T13:22:12;1.02;;;0.68;;
40449;SDS011;41787;53.570;10.032;2023-05-03T13:24:39;1.55;;;0.68;;
40449;SDS011;41787;53.570;10.032;2023-05-03T13:27:05;6.65;;;1.20;;
40449;SDS011;41787;53.570;10.032;2023-05-03T13:29:31;5.10;;;1.20;;
40449;SDS011;41787;53.570;10.032;2023-05-03T13:31:57;2.08;;;1.00;;
40449;SDS011;41787;53.570;10.032;2023-05-03T13:34:23;1.92;;;0.90;;
40449;SDS011;41787;53.570;10.032;2023-05-03T13:36:50;5.20;;;1.15;;
40449;SDS011;41787;53.570;10.032;2023-05-03T13:39:16;4.57;;;1.00;;
40449;SDS011;41787;53.570;10.032;2023-05-03T13:41:43;1.55;;;0.75;;
40449;SDS011;41787;53.570;10.032;2023-05-03T13:44:09;5.05;;;0.95;;
40449;SDS011;41787;53.570;10.032;2023-05-03T13:46:35;3.40;;;1.38;;
40449;SDS011;41787;53.570;10.032;2023-05-03T13:49:02;2.03;;;0.90;;
40449;SDS011;41787;53.570;10.032;2023-05-03T13:51:29;6.05;;;1.00;;
40449;SDS011;41787;53.570;10.032;2023-05-03T13:53:55;2.75;;;1.30;;
40449;SDS011;41787;53.570;10.032;2023-05-03T13:56:21;1.98;;;1.17;;
40449;SDS011;41787;53.570;10.032;2023-05-03T13:58:47;3.47;;;1.20;;
40449;SDS011;41787;53.570;10.032;2023-05-03T14:01:15;3.03;;;0.80;;
40449;SDS011;41787;53.570;10.032;2023-05-03T14:03:41;3.80;;;1.20;;
40449;SDS011;41787;53.570;10.032;2023-05-03T14:06:09;2.08;;;1.00;;
40449;SDS011;41787;53.570;10.032;2023-05-03T14:08:35;3.35;;;1.15;;
40449;SDS011;41787;53.570;10.032;2023-05-03T14:11:01;6.47;;;1.30;;
40449;SDS011;41787;53.570;10.032;2023-05-03T14:13:27;2.00;;;0.90;;
40449;SDS011;41787;53.570;10.032;2023-05-03T14:15:54;1.92;;;1.10;;
40449;SDS011;41787;53.570;10.032;2023-05-03T14:18:20;4.35;;;1.35;;
40449;SDS011;41787;53.570;10.032;2023-05-03T14:20:46;26.83;;;1.58;;
40449;SDS011;41787;53.570;10.032;2023-05-03T14:23:14;1.40;;;0.90;;
40449;SDS011;41787;53.570;10.032;2023-05-03T14:25:41;0.65;;;0.55;;
40449;SDS011;41787;53.570;10.032;2023-05-03T14:28:07;4.15;;;1.17;;
40449;SDS011;41787;53.570;10.032;2023-05-03T14:30:33;1.60;;;1.10;;
40449;SDS011;41787;53.570;10.032;2023-05-03T14:33:00;2.25;;;1.42;;
40449;SDS011;41787;53.570;10.032;2023-05-03T14:35:26;3.80;;;1.40;;
40449;SDS011;41787;53.570;10.032;2023-05-03T14:37:52;3.25;;;1.52;;
40449;SDS011;41787;53.570;10.032;2023-05-03T14:40:18;3.05;;;1.15;;
40449;SDS011;41787;53.570;10.032;2023-05-03T14:42:45;2.85;;;1.48;;
40449;SDS011;41787;53.570;10.032;2023-05-03T14:45:11;1.88;;;1.05;;
40449;SDS011;41787;53.570;10.032;2023-05-03T14:47:39;2.08;;;1.13;;